createdAt,value
2023-02-11T00:00:34.005Z,101585.56
2023-02-11T00:03:00.579Z,101574.59
2023-02-11T00:05:27.047Z,101569.22
2023-02-11T00:07:53.444Z,101568.38
2023-02-11T00:10:19.904Z,101566.47
2023-02-11T00:12:46.481Z,101560.97
2023-02-11T00:15:13.059Z,101556.75
2023-02-11T00:17:39.482Z,101567.63
2023-02-11T00:20:08.318Z,101563.16
2023-02-11T00:22:35.832Z,101561.22
2023-02-11T00:25:02.479Z,101557.25
2023-02-11T00:27:29.370Z,101548.38
2023-02-11T00:29:56.118Z,101526.53
2023-02-11T00:32:22.771Z,101524.31
2023-02-11T00:34:52.495Z,101532.06
2023-02-11T00:37:18.960Z,101516.91
2023-02-11T00:39:46.061Z,101513.91
2023-02-11T00:42:15.055Z,101524.78
2023-02-11T00:44:41.538Z,101522.00
2023-02-11T00:47:08.324Z,101513.69
2023-02-11T00:49:35.212Z,101502.06
2023-02-11T00:52:02.061Z,101494.41
2023-02-11T00:54:30.003Z,101485.88
2023-02-11T00:56:56.541Z,101484.00
2023-02-11T00:59:23.305Z,101471.31
2023-02-11T01:01:51.379Z,101464.94
2023-02-11T01:04:18.104Z,101467.78
2023-02-11T01:06:44.568Z,101455.53
2023-02-11T01:09:11.015Z,101450.56
2023-02-11T01:11:37.496Z,101453.59
2023-02-11T01:14:04.010Z,101457.47
2023-02-11T01:16:30.501Z,101458.03
2023-02-11T01:18:58.790Z,101467.38
2023-02-11T01:21:25.816Z,101460.53
2023-02-11T01:23:52.600Z,101478.91
2023-02-11T01:26:19.269Z,101469.31
2023-02-11T01:28:45.839Z,101467.38
2023-02-11T01:31:12.359Z,101470.25
2023-02-11T01:33:38.975Z,101471.66
2023-02-11T01:36:06.311Z,101467.34
2023-02-11T01:38:33.227Z,101461.84
2023-02-11T01:41:05.506Z,101454.44
2023-02-11T01:43:35.301Z,101461.84
2023-02-11T01:46:15.138Z,101459.69
2023-02-11T01:48:44.734Z,101453.69
2023-02-11T01:51:16.760Z,101442.47
2023-02-11T01:54:02.476Z,101442.25
2023-02-11T01:56:49.769Z,101432.31
2023-02-11T01:59:24.093Z,101435.94
2023-02-11T02:01:53.593Z,101436.25
2023-02-11T02:04:21.453Z,101423.59
2023-02-11T02:07:01.991Z,101420.56
2023-02-11T02:09:31.278Z,101439.03
2023-02-11T02:11:57.826Z,101435.72
2023-02-11T02:14:24.401Z,101431.59
2023-02-11T02:16:50.893Z,101434.66
2023-02-11T02:19:36.096Z,101434.19
2023-02-11T02:22:14.687Z,101436.66
2023-02-11T02:25:32.501Z,101433.09
2023-02-11T02:28:08.856Z,101434.22
2023-02-11T02:30:57.160Z,101430.38
2023-02-11T02:33:49.430Z,101414.38
2023-02-11T02:36:22.733Z,101413.03
2023-02-11T02:39:12.569Z,101403.94
2023-02-11T02:41:39.525Z,101403.94
2023-02-11T02:44:07.697Z,101398.69
2023-02-11T02:46:35.073Z,101398.97
2023-02-11T02:49:02.008Z,101399.81
2023-02-11T02:51:54.488Z,101380.53
2023-02-11T02:54:46.203Z,101391.00
2023-02-11T02:57:45.062Z,101384.13
2023-02-11T03:00:35.602Z,101390.75
2023-02-11T03:03:26.477Z,101391.88
2023-02-11T03:05:58.903Z,101405.38
2023-02-11T03:09:11.542Z,101413.91
2023-02-11T03:11:38.497Z,101418.88
2023-02-11T03:14:09.472Z,101408.69
2023-02-11T03:16:39.260Z,101404.56
2023-02-11T03:19:11.282Z,101407.31
2023-02-11T03:21:38.756Z,101403.44
2023-02-11T03:24:08.774Z,101383.03
2023-02-11T03:26:43.238Z,101367.31
2023-02-11T03:29:34.804Z,101358.78
2023-02-11T03:32:12.196Z,101356.03
2023-02-11T03:34:44.748Z,101369.53
2023-02-11T03:37:25.415Z,101361.53
2023-02-11T03:39:59.358Z,101369.81
2023-02-11T03:42:29.036Z,101354.94
2023-02-11T03:45:04.149Z,101338.38
2023-02-11T03:47:32.260Z,101341.13
2023-02-11T03:49:59.675Z,101336.19
2023-02-11T03:52:28.129Z,101344.44
2023-02-11T03:54:57.681Z,101338.38
2023-02-11T03:57:24.269Z,101339.47
2023-02-11T03:59:56.161Z,101331.75
2023-02-11T04:02:25.712Z,101325.69
2023-02-11T04:04:52.210Z,101339.19
2023-02-11T04:07:18.616Z,101332.03
2023-02-11T04:09:45.198Z,101330.38
2023-02-11T04:12:11.680Z,101329.00
2023-02-11T04:14:38.455Z,101325.69
2023-02-11T04:17:05.358Z,101332.56
2023-02-11T04:19:32.244Z,101340.56
2023-02-11T04:21:58.777Z,101343.34
2023-02-11T04:24:25.346Z,101343.31
2023-02-11T04:26:52.666Z,101336.16
2023-02-11T04:29:19.641Z,101338.09
2023-02-11T04:31:46.598Z,101349.41
2023-02-11T04:34:13.323Z,101343.59
2023-02-11T04:36:39.967Z,101342.50
2023-02-11T04:39:06.699Z,101348.28
2023-02-11T04:41:33.235Z,101347.75
2023-02-11T04:43:59.809Z,101344.44
2023-02-11T04:46:26.471Z,101354.63
2023-02-11T04:48:53.048Z,101357.94
2023-02-11T04:51:19.482Z,101348.00
2023-02-11T04:53:45.928Z,101350.50
2023-02-11T04:56:12.386Z,101355.19
2023-02-11T04:58:38.867Z,101350.50
2023-02-11T05:01:09.797Z,101345.25
2023-02-11T05:03:37.005Z,101344.16
2023-02-11T05:06:04.088Z,101354.91
2023-02-11T05:08:30.738Z,101357.09
2023-02-11T05:10:57.669Z,101358.75
2023-02-11T05:13:24.347Z,101356.00
2023-02-11T05:15:51.280Z,101355.72
2023-02-11T05:18:17.927Z,101341.94
2023-02-11T05:20:44.739Z,101352.97
2023-02-11T05:23:12.069Z,101352.16
2023-02-11T05:25:38.780Z,101355.47
2023-02-11T05:28:05.680Z,101353.25
2023-02-11T05:30:32.903Z,101352.41
2023-02-11T05:32:59.452Z,101344.41
2023-02-11T05:35:25.910Z,101335.59
2023-02-11T05:37:52.432Z,101335.34
2023-02-11T05:40:18.970Z,101332.28
2023-02-11T05:42:45.455Z,101334.50
2023-02-11T05:45:11.920Z,101338.66
2023-02-11T05:47:38.475Z,101328.44
2023-02-11T05:50:05.532Z,101329.53
2023-02-11T05:52:32.072Z,101329.53
2023-02-11T05:54:58.698Z,101333.69
2023-02-11T05:57:25.245Z,101345.53
2023-02-11T05:59:51.805Z,101335.34
2023-02-11T06:02:18.265Z,101328.44
2023-02-11T06:04:44.794Z,101320.16
2023-02-11T06:07:11.697Z,101316.59
2023-02-11T06:09:38.176Z,101310.53
2023-02-11T06:12:05.033Z,101318.25
2023-02-11T06:14:33.790Z,101322.94
2023-02-11T06:17:01.149Z,101315.75
2023-02-11T06:19:27.704Z,101318.50
2023-02-11T06:21:55.380Z,101325.69
2023-02-11T06:24:47.778Z,101309.13
2023-02-11T06:27:09.180Z,101315.22
2023-02-11T06:29:35.947Z,101302.00
2023-02-11T06:32:02.476Z,101307.78
2023-02-11T06:34:29.038Z,101295.34
2023-02-11T06:36:55.591Z,101304.72
2023-02-11T06:39:22.085Z,101298.09
2023-02-11T06:41:48.788Z,101293.94
2023-02-11T06:44:15.287Z,101293.13
2023-02-11T06:46:41.828Z,101304.16
2023-02-11T06:49:08.289Z,101300.56
2023-02-11T06:51:34.787Z,101291.16
2023-02-11T06:54:01.177Z,101293.13
2023-02-11T06:56:27.856Z,101299.19
2023-02-11T06:58:57.804Z,101280.97
2023-02-11T07:01:25.127Z,101285.63
2023-02-11T07:03:51.805Z,101283.13
2023-02-11T07:06:21.519Z,101274.88
2023-02-11T07:08:48.698Z,101283.41
2023-02-11T07:11:17.789Z,101281.75
2023-02-11T07:13:44.539Z,101285.06
2023-02-11T07:16:16.595Z,101291.41
2023-02-11T07:18:43.769Z,101289.50
2023-02-11T07:21:13.142Z,101301.63
2023-02-11T07:23:40.876Z,101301.88
2023-02-11T07:26:09.550Z,101307.91
2023-02-11T07:28:37.501Z,101305.69
2023-02-11T07:31:12.404Z,101315.16
2023-02-11T07:33:38.998Z,101315.16
2023-02-11T07:36:06.837Z,101313.50
2023-02-11T07:38:34.567Z,101307.97
2023-02-11T07:41:02.678Z,101310.75
2023-02-11T07:43:29.475Z,101309.06
2023-02-11T07:45:55.970Z,101306.63
2023-02-11T07:48:22.416Z,101298.34
2023-02-11T07:50:49.089Z,101310.78
2023-02-11T07:53:15.685Z,101305.81
2023-02-11T07:55:45.189Z,101303.59
2023-02-11T07:58:11.759Z,101312.69
2023-02-11T08:00:38.988Z,101313.22
2023-02-11T08:03:07.820Z,101317.91
2023-02-11T08:05:38.177Z,101317.09
2023-02-11T08:08:04.683Z,101311.56
2023-02-11T08:10:31.357Z,101312.66
2023-02-11T08:12:57.880Z,101303.81
2023-02-11T08:15:26.506Z,101307.69
2023-02-11T08:17:52.884Z,101307.66
2023-02-11T08:20:19.422Z,101307.34
2023-02-11T08:22:45.910Z,101312.84
2023-02-11T08:25:12.320Z,101302.63
2023-02-11T08:27:38.919Z,101302.09
2023-02-11T08:30:05.899Z,101298.47
2023-02-11T08:32:34.712Z,101295.44
2023-02-11T08:35:01.306Z,101291.56
2023-02-11T08:37:27.841Z,101296.81
2023-02-11T08:39:55.023Z,101286.56
2023-02-11T08:42:21.436Z,101293.47
2023-02-11T08:44:47.941Z,101284.34
2023-02-11T08:47:14.482Z,101289.03
2023-02-11T08:49:42.349Z,101285.13
2023-02-11T08:52:08.939Z,101290.06
2023-02-11T08:54:35.503Z,101299.75
2023-02-11T08:57:02.063Z,101290.59
2023-02-11T08:59:29.122Z,101304.38
2023-02-11T09:01:56.339Z,101292.22
2023-02-11T09:04:22.876Z,101292.75
2023-02-11T09:06:49.380Z,101304.91
2023-02-11T09:09:16.287Z,101310.41
2023-02-11T09:11:44.357Z,101305.41
2023-02-11T09:14:20.135Z,101311.53
2023-02-11T09:16:47.345Z,101302.38
2023-02-11T09:19:13.916Z,101303.19
2023-02-11T09:21:40.444Z,101317.47
2023-02-11T09:24:07.140Z,101310.31
2023-02-11T09:26:35.360Z,101315.50
2023-02-11T09:29:03.116Z,101318.81
2023-02-11T09:31:31.051Z,101328.47
2023-02-11T09:34:04.362Z,101334.00
2023-02-11T09:36:34.233Z,101334.38
2023-02-11T09:39:01.900Z,101336.31
2023-02-11T09:42:05.864Z,101339.38
2023-02-11T09:44:34.377Z,101328.06
2023-02-11T09:47:03.649Z,101332.97
2023-02-11T09:49:40.380Z,101312.53
2023-02-11T09:52:45.738Z,101322.47
2023-02-11T09:55:22.067Z,101326.91
2023-02-11T09:57:48.876Z,101328.53
2023-02-11T10:00:29.255Z,101312.56
2023-02-11T10:03:03.939Z,101309.22
2023-02-11T10:05:49.008Z,101311.06
2023-02-11T10:08:34.285Z,101323.16
2023-02-11T10:11:13.871Z,101316.75
2023-02-11T10:14:01.943Z,101318.66
2023-02-11T10:16:49.712Z,101320.00
2023-02-11T10:19:33.857Z,101318.41
2023-02-11T10:22:18.869Z,101309.28
2023-02-11T10:24:55.438Z,101308.44
2023-02-11T10:27:31.307Z,101310.34
2023-02-11T10:30:19.167Z,101302.34
2023-02-11T10:32:51.266Z,101299.72
2023-02-11T10:35:21.911Z,101310.19
2023-02-11T10:37:48.918Z,101323.63
2023-02-11T10:40:33.876Z,101344.31
2023-02-11T10:43:05.152Z,101318.88
2023-02-11T10:45:38.801Z,101306.28
2023-02-11T10:48:07.195Z,101299.44
2023-02-11T10:50:35.101Z,101311.91
2023-02-11T10:53:22.288Z,101307.22
2023-02-11T10:55:57.263Z,101287.38
2023-02-11T10:58:29.393Z,101290.69
2023-02-11T11:00:56.905Z,101281.56
2023-02-11T11:03:25.522Z,101304.22
2023-02-11T11:05:57.413Z,101298.09
2023-02-11T11:08:50.759Z,101294.72
2023-02-11T11:11:19.616Z,101303.03
2023-02-11T11:13:52.290Z,101287.03
2023-02-11T11:16:25.658Z,101293.91
2023-02-11T11:19:13.690Z,101302.50
2023-02-11T11:21:46.082Z,101296.31
2023-02-11T11:24:24.538Z,101299.91
2023-02-11T11:26:54.591Z,101291.66
2023-02-11T11:29:39.617Z,101302.38
2023-02-11T11:32:11.427Z,101298.56
2023-02-11T11:34:41.844Z,101289.97
2023-02-11T11:37:21.216Z,101281.44
2023-02-11T11:39:57.846Z,101287.44
2023-02-11T11:42:35.289Z,101290.16
2023-02-11T11:45:14.961Z,101277.53
2023-02-11T11:47:45.423Z,101288.63
2023-02-11T11:50:21.241Z,101286.44
2023-02-11T11:53:25.592Z,101292.25
2023-02-11T11:56:02.786Z,101298.97
2023-02-11T11:58:30.524Z,101303.81
2023-02-11T12:01:12.817Z,101300.44
2023-02-11T12:03:48.713Z,101300.09
2023-02-11T12:06:27.126Z,101299.81
2023-02-11T12:09:00.886Z,101306.16
2023-02-11T12:11:46.569Z,101295.97
2023-02-11T12:14:28.377Z,101295.16
2023-02-11T12:17:07.580Z,101288.03
2023-02-11T12:19:40.081Z,101284.44
2023-02-11T12:22:12.125Z,101296.84
2023-02-11T12:24:50.920Z,101297.22
2023-02-11T12:27:32.492Z,101293.03
2023-02-11T12:30:02.332Z,101302.97
2023-02-11T12:32:46.970Z,101299.44
2023-02-11T12:35:38.532Z,101299.91
2023-02-11T12:38:28.577Z,101302.34
2023-02-11T12:41:15.349Z,101300.22
2023-02-11T12:43:43.613Z,101302.97
2023-02-11T12:46:47.723Z,101301.31
2023-02-11T12:49:23.197Z,101304.72
2023-02-11T12:52:08.747Z,101285.31
2023-02-11T12:55:01.284Z,101286.44
2023-02-11T12:57:30.290Z,101286.72
2023-02-11T13:00:15.330Z,101289.72
2023-02-11T13:02:44.623Z,101289.19
2023-02-11T13:05:27.761Z,101287.53
2023-02-11T13:07:59.385Z,101280.66
2023-02-11T13:10:34.507Z,101264.09
2023-02-11T13:13:17.911Z,101271.53
2023-02-11T13:16:09.175Z,101269.88
2023-02-11T13:18:55.985Z,101258.16
2023-02-11T13:21:43.458Z,101260.69
2023-02-11T13:24:49.084Z,101251.81
2023-02-11T13:27:33.018Z,101252.56
2023-02-11T13:30:22.049Z,101262.06
2023-02-11T13:32:54.740Z,101247.63
2023-02-11T13:35:31.780Z,101253.53
2023-02-11T13:38:01.005Z,101247.63
2023-02-11T13:40:39.605Z,101245.91
2023-02-11T13:43:20.434Z,101250.28
2023-02-11T13:45:48.489Z,101242.84
2023-02-11T13:48:48.200Z,101252.22
2023-02-11T13:51:32.368Z,101253.09
2023-02-11T13:53:59.252Z,101248.34
2023-02-11T13:56:40.149Z,101249.97
2023-02-11T13:59:30.618Z,101243.63
2023-02-11T14:02:18.656Z,101252.44
2023-02-11T14:05:22.255Z,101241.38
2023-02-11T14:08:30.455Z,101245.88
2023-02-11T14:11:14.722Z,101241.09
2023-02-11T14:13:47.405Z,101265.72
2023-02-11T14:16:22.637Z,101264.22
2023-02-11T14:18:54.641Z,101263.41
2023-02-11T14:21:30.510Z,101271.13
2023-02-11T14:24:04.756Z,101269.75
2023-02-11T14:26:47.627Z,101270.59
2023-02-11T14:29:33.376Z,101275.31
2023-02-11T14:32:24.180Z,101278.91
2023-02-11T14:35:35.871Z,101274.47
2023-02-11T14:38:26.914Z,101273.66
2023-02-11T14:41:14.691Z,101271.13
2023-02-11T14:43:46.933Z,101275.59
2023-02-11T14:46:15.962Z,101278.06
2023-02-11T14:48:45.971Z,101278.72
2023-02-11T14:51:19.766Z,101272.34
2023-02-11T14:53:49.146Z,101270.72
2023-02-11T14:56:31.021Z,101268.72
2023-02-11T14:58:58.132Z,101270.41
2023-02-11T15:01:36.226Z,101266.28
2023-02-11T15:04:05.638Z,101273.00
2023-02-11T15:06:37.051Z,101271.06
2023-02-11T15:09:16.210Z,101268.81
2023-02-11T15:11:44.428Z,101268.59
2023-02-11T15:14:34.869Z,101268.28
2023-02-11T15:17:04.332Z,101267.41
2023-02-11T15:19:41.056Z,101279.59
2023-02-11T15:22:18.477Z,101267.41
2023-02-11T15:24:45.427Z,101274.59
2023-02-11T15:27:18.486Z,101277.84
2023-02-11T15:29:49.387Z,101282.31
2023-02-11T15:32:21.778Z,101276.78
2023-02-11T15:34:50.356Z,101288.16
2023-02-11T15:37:23.591Z,101282.38
2023-02-11T15:39:50.740Z,101287.38
2023-02-11T15:42:20.822Z,101275.44
2023-02-11T15:44:54.303Z,101279.06
2023-02-11T15:47:29.399Z,101273.25
2023-02-11T15:49:55.903Z,101274.13
2023-02-11T15:52:25.218Z,101281.31
2023-02-11T15:54:52.787Z,101276.38
2023-02-11T15:57:20.094Z,101276.38
2023-02-11T15:59:49.545Z,101278.53
2023-02-11T16:02:24.321Z,101287.44
2023-02-11T16:04:59.216Z,101285.25
2023-02-11T16:07:40.993Z,101289.31
2023-02-11T16:10:19.116Z,101300.91
2023-02-11T16:13:07.082Z,101302.63
2023-02-11T16:15:33.897Z,101309.28
2023-02-11T16:18:02.020Z,101302.88
2023-02-11T16:20:28.463Z,101308.41
2023-02-11T16:22:55.074Z,101305.09
2023-02-11T16:25:22.224Z,101321.13
2023-02-11T16:27:52.064Z,101323.94
2023-02-11T16:30:23.864Z,101323.66
2023-02-11T16:32:53.084Z,101323.94
2023-02-11T16:35:19.591Z,101325.34
2023-02-11T16:37:46.071Z,101333.41
2023-02-11T16:40:13.190Z,101332.88
2023-02-11T16:42:39.838Z,101336.00
2023-02-11T16:45:06.785Z,101327.72
2023-02-11T16:47:34.437Z,101329.81
2023-02-11T16:50:01.476Z,101329.03
2023-02-11T16:52:31.409Z,101333.44
2023-02-11T16:54:58.787Z,101324.91
2023-02-11T16:57:29.546Z,101334.06
2023-02-11T16:59:56.563Z,101334.34
2023-02-11T17:02:26.091Z,101340.75
2023-02-11T17:04:54.396Z,101340.28
2023-02-11T17:07:21.090Z,101347.78
2023-02-11T17:09:47.547Z,101350.53
2023-02-11T17:12:13.932Z,101350.00
2023-02-11T17:14:40.670Z,101361.88
2023-02-11T17:17:08.052Z,101351.69
2023-02-11T17:19:34.493Z,101362.25
2023-02-11T17:22:00.948Z,101348.91
2023-02-11T17:24:27.426Z,101355.84
2023-02-11T17:26:54.748Z,101364.44
2023-02-11T17:29:24.446Z,101363.34
2023-02-11T17:31:52.436Z,101360.03
2023-02-11T17:34:20.279Z,101372.19
2023-02-11T17:36:46.732Z,101380.19
2023-02-11T17:39:13.319Z,101369.66
2023-02-11T17:41:40.474Z,101364.97
2023-02-11T17:44:08.558Z,101379.91
2023-02-11T17:46:35.806Z,101370.22
2023-02-11T17:49:02.944Z,101371.59
2023-02-11T17:51:32.592Z,101384.31
2023-02-11T17:54:01.449Z,101385.47
2023-02-11T17:56:29.874Z,101380.47
2023-02-11T17:58:56.289Z,101385.47
2023-02-11T18:01:23.098Z,101386.56
2023-02-11T18:03:49.613Z,101379.66
2023-02-11T18:06:16.087Z,101395.16
2023-02-11T18:08:43.087Z,101399.88
2023-02-11T18:11:10.880Z,101412.06
2023-02-11T18:13:37.257Z,101416.47
2023-02-11T18:16:04.660Z,101423.69
2023-02-11T18:18:31.564Z,101413.75
2023-02-11T18:20:59.508Z,101417.88
2023-02-11T18:23:26.678Z,101424.25
2023-02-11T18:25:53.782Z,101426.19
2023-02-11T18:28:20.424Z,101427.00
2023-02-11T18:30:47.010Z,101428.66
2023-02-11T18:33:14.580Z,101436.13
2023-02-11T18:35:41.713Z,101439.13
2023-02-11T18:38:08.944Z,101439.69
2023-02-11T18:40:38.469Z,101442.75
2023-02-11T18:43:05.020Z,101441.63
2023-02-11T18:45:31.628Z,101443.28
2023-02-11T18:48:01.517Z,101452.41
2023-02-11T18:50:28.016Z,101454.63
2023-02-11T18:52:54.449Z,101456.53
2023-02-11T18:55:25.307Z,101458.22
2023-02-11T18:57:52.929Z,101460.97
2023-02-11T19:00:20.501Z,101477.53
2023-02-11T19:02:47.024Z,101472.00
2023-02-11T19:05:13.843Z,101479.19
2023-02-11T19:07:40.236Z,101488.31
2023-02-11T19:10:07.463Z,101476.16
2023-02-11T19:12:34.282Z,101481.13
2023-02-11T19:15:00.860Z,101472.28
2023-02-11T19:17:27.677Z,101475.84
2023-02-11T19:19:54.478Z,101489.94
2023-02-11T19:22:21.049Z,101505.41
2023-02-11T19:24:47.553Z,101502.34
2023-02-11T19:27:14.104Z,101501.28
2023-02-11T19:29:40.691Z,101506.50
2023-02-11T19:32:07.274Z,101509.28
2023-02-11T19:34:40.936Z,101509.28
2023-02-11T19:37:08.640Z,101512.03
2023-02-11T19:39:35.097Z,101512.59
2023-02-11T19:42:01.649Z,101512.84
2023-02-11T19:44:28.166Z,101517.25
2023-02-11T19:46:54.777Z,101525.00
2023-02-11T19:49:26.238Z,101520.28
2023-02-11T19:51:54.264Z,101516.16
2023-02-11T19:54:21.980Z,101522.50
2023-02-11T19:56:48.789Z,101528.88
2023-02-11T19:59:16.034Z,101527.19
2023-02-11T20:01:43.413Z,101535.19
2023-02-11T20:04:10.758Z,101535.50
2023-02-11T20:06:37.220Z,101543.22
2023-02-11T20:09:06.960Z,101545.44
2023-02-11T20:11:34.712Z,101548.50
2023-02-11T20:14:01.189Z,101552.09
2023-02-11T20:16:46.051Z,101566.16
2023-02-11T20:19:17.815Z,101569.22
2023-02-11T20:21:47.068Z,101571.97
2023-02-11T20:24:14.857Z,101564.78
2023-02-11T20:26:42.461Z,101568.38
2023-02-11T20:29:09.358Z,101577.22
2023-02-11T20:31:36.339Z,101570.84
2023-02-11T20:34:02.957Z,101573.06
2023-02-11T20:36:32.303Z,101560.63
2023-02-11T20:39:00.351Z,101560.63
2023-02-11T20:41:32.666Z,101559.81
2023-02-11T20:44:01.075Z,101553.16
2023-02-11T20:46:30.165Z,101544.59
2023-02-11T20:48:57.202Z,101552.34
2023-02-11T20:51:26.748Z,101548.47
2023-02-11T20:53:53.587Z,101543.50
2023-02-11T20:56:22.409Z,101545.16
2023-02-11T20:58:49.519Z,101530.78
2023-02-11T21:01:22.002Z,101534.91
2023-02-11T21:03:55.314Z,101543.50
2023-02-11T21:06:22.430Z,101535.47
2023-02-11T21:08:49.047Z,101544.06
2023-02-11T21:11:16.320Z,101552.91
2023-02-11T21:13:43.483Z,101546.81
2023-02-11T21:16:15.320Z,101553.72
2023-02-11T21:18:42.112Z,101547.34
2023-02-11T21:21:08.842Z,101565.31
2023-02-11T21:23:35.864Z,101560.06
2023-02-11T21:26:02.308Z,101556.72
2023-02-11T21:28:28.845Z,101566.41
2023-02-11T21:30:56.699Z,101573.06
2023-02-11T21:33:24.147Z,101576.38
2023-02-11T21:35:54.219Z,101578.59
2023-02-11T21:38:20.933Z,101584.94
2023-02-11T21:40:47.348Z,101584.66
2023-02-11T21:43:13.828Z,101590.19
2023-02-11T21:45:44.318Z,101591.84
2023-02-11T21:48:11.128Z,101596.00
2023-02-11T21:50:45.078Z,101600.69
2023-02-11T21:53:12.485Z,101597.38
2023-02-11T21:55:39.817Z,101604.84
2023-02-11T21:58:06.647Z,101596.81
2023-02-11T22:00:33.897Z,101599.28
2023-02-11T22:03:00.433Z,101607.31
2023-02-11T22:05:27.006Z,101614.78
2023-02-11T22:07:53.515Z,101611.75
2023-02-11T22:10:20.339Z,101616.72
2023-02-11T22:12:46.826Z,101616.44
2023-02-11T22:15:13.520Z,101617.00
2023-02-11T22:17:40.271Z,101614.78
2023-02-11T22:20:07.262Z,101612.84
2023-02-11T22:22:33.784Z,101618.66
2023-02-11T22:25:01.880Z,101631.34
2023-02-11T22:27:28.328Z,101625.84
2023-02-11T22:29:54.756Z,101642.97
2023-02-11T22:32:21.327Z,101639.66
2023-02-11T22:34:47.791Z,101631.66
2023-02-11T22:37:15.023Z,101634.41
2023-02-11T22:39:42.722Z,101644.63
2023-02-11T22:42:09.630Z,101635.25
2023-02-11T22:44:37.036Z,101639.94
2023-02-11T22:47:03.516Z,101631.09
2023-02-11T22:49:32.416Z,101644.09
2023-02-11T22:51:59.560Z,101654.31
2023-02-11T22:54:25.966Z,101659.03
2023-02-11T22:56:53.289Z,101665.94
2023-02-11T22:59:20.016Z,101664.53
2023-02-11T23:01:46.710Z,101659.00
2023-02-11T23:04:14.866Z,101670.06
2023-02-11T23:06:41.349Z,101675.59
2023-02-11T23:09:09.381Z,101674.50
2023-02-11T23:11:35.978Z,101673.13
2023-02-11T23:14:02.960Z,101684.75
2023-02-11T23:16:31.935Z,101686.66
2023-02-11T23:18:59.765Z,101682.81
2023-02-11T23:21:28.911Z,101674.50
2023-02-11T23:23:57.373Z,101675.88
2023-02-11T23:26:24.363Z,101681.69
2023-02-11T23:28:50.964Z,101676.44
2023-02-11T23:31:23.539Z,101684.16
2023-02-11T23:33:50.638Z,101686.94
2023-02-11T23:36:18.633Z,101691.34
2023-02-11T23:38:45.392Z,101685.53
2023-02-11T23:41:11.901Z,101695.50
2023-02-11T23:43:38.820Z,101693.28
2023-02-11T23:46:05.901Z,101706.84
2023-02-11T23:48:32.701Z,101693.56
2023-02-11T23:50:59.675Z,101689.97
2023-02-11T23:53:26.123Z,101689.41
2023-02-11T23:55:52.699Z,101690.25
2023-02-11T23:58:19.486Z,101698.28
